Station: Act Pcs3  

  Atmospheric Gas Attenuation - ITU Rec 676-11   ----------------- dB/100km -----------------
Date Time Temp RH % AH g/m3 Dew Point Wind Direction Speed kph Gust kph Barometer mB Rainfall Since 9am 24GHz 47GHz 76GHz 122GHz 134GHz 241GHz
02/09 19:30 13.6 71 8.36 8.4 6 7 1013.1 0 19.1 25.6 38.9 102.1 95.5 328.2
02/09 19:20 13.6 70 8.24 8.3 7 9 1013.1 0 18.8 25.4 38.5 100.9 93.9 322.7
02/09 19:10 13.6 69 8.12 8.1 7 9 1013.1 0 18.6 25.2 38.0 99.6 92.3 317.3
02/09 19:00 13.4 69 8.02 7.9 7 11 1013.1 0 18.4 25.1 37.7 98.8 91.3 313.5
02/09 18:50 13.4 69 8.02 7.8 6 9 1013.1 0 18.4 25.1 37.7 98.8 91.3 313.5
02/09 18:40 13.5 68 7.95 7.7 7 9 1013.1 0 18.2 24.9 37.4 97.9 90.3 309.9
02/09 18:30 13.7 66 7.82 7.6 7 9 1013.1 0 17.9 24.7 36.8 96.3 88.3 303.3
02/09 18:20 13.8 65 7.74 7.5 6 7 1013.1 0 17.8 24.5 36.4 95.4 87.2 299.3
02/09 18:10 14 64 7.72 7.3 7 9 1013.1 0 17.7 24.4 36.2 94.9 86.7 297.7
02/09 18:00 14.2 63 7.69 7.2 7 9 1013.1 0 17.6 24.3 36.0 94.4 86.1 295.6
02/09 17:50 14.4 61 7.54 7.1 7 11 1013.1 0 17.3 24.0 35.4 92.6 84.0 288.2
02/09 17:40 14.7 60 7.55 7.1 9 11 1013.1 0 17.3 24.0 35.3 92.4 83.8 287.5
02/09 17:30 14.9 60 7.65 7.2 9 9 1013.1 0 17.5 24.1 35.6 93.1 84.9 291.2
02/09 17:20 15.5 58 7.67 7.4 7 11 1013.1 0 17.5 24.0 35.4 92.6 84.5 289.9
02/09 17:10 16.2 53 7.31 6.7 13 17 1013.1 0 16.7 23.2 33.7 88.3 79.3 271.9
02/09 17:00 16.5 52 7.3 6.7 9 13 1013.1 0 16.7 23.1 33.6 87.8 78.9 270.5
02/09 16:50 16.4 52 7.26 6.5 13 15 1013.1 0 16.6 23.1 33.5 87.5 78.5 269.1
02/09 16:40 16.9 50 7.19 6.6 11 15 1013.1 0 16.5 22.9 33.0 86.3 77.2 264.5
02/09 16:30 17.3 49 7.22 6.7 13 15 1013.1 0 16.5 22.8 32.9 86.2 77.1 264.4
02/09 16:20 17.5 48 7.16 6.6 11 11 1013.1 0 16.4 22.7 32.6 85.4 76.2 261.3
02/09 16:10 18.2 45 6.99 6.3 11 15 1013.1 0 16.0 22.3 31.8 83.0 73.6 252.0
02/09 15:50 18.1 46 7.11 6.5 13 15 1013.1 0 16.2 22.5 32.2 84.3 75.1 257.3
02/09 15:40 18.8 43 6.92 6.1 9 13 1013.1 0 15.8 22.0 31.3 81.8 72.2 247.3
02/09 15:30 17.4 47 6.96 6.1 9 11 1013.1 0 15.9 22.4 32.0 83.6 73.9 253.3
02/09 15:20 17.1 48 6.99 6 11 17 1013.1 0 16.0 22.5 32.2 84.2 74.6 255.4
02/09 15:10 17.2 47 6.88 6 11 15 1013.1 0 15.8 22.3 31.8 83.0 73.2 250.6
02/09 15:00 17.6 46 6.9 5.9 11 15 1013.1 0 15.8 22.3 31.7 82.8 73.1 250.2
02/09 14:50 18.3 44 6.88 6.1 11 13 1013.1 0 15.7 22.1 31.3 81.9 72.2 247.2
02/09 14:40 19.7 39 6.62 5.6 11 17 1013.1 0 15.1 21.4 29.9 78.1 68.0 232.6
02/09 14:30 19.4 43 7.17 6.5 11 15 1013.1 0 16.3 22.2 31.9 83.5 74.6 255.6
02/09 14:20 18.8 44 7.09 6.4 11 13 1013.1 0 16.2 22.3 31.9 83.4 74.2 254.2
02/09 14:10 19.2 43 7.09 6.3 11 15 1013.1 0 16.2 22.2 31.7 83.0 73.8 253.0
02/09 14:00 20 40 6.91 6 13 17 1013.1 0 15.7 21.7 30.8 80.5 71.0 243.3
02/09 13:50 20 40 6.91 6 13 17 1013.1 0 15.7 21.7 30.8 80.5 71.0 243.3
02/09 13:40 19.6 41 6.92 6.1 13 15 1013.1 0 15.8 21.8 31.0 81.0 71.5 244.9
02/09 13:30 19 43 7.01 6.3 11 15 1013.1 0 16.0 22.1 31.5 82.4 73.1 250.3
02/09 13:20 20.3 40 7.03 6.3 13 15 1013.1 0 16.0 21.8 31.1 81.3 72.1 247.2
02/09 13:10 20.4 44 7.78 8 9 13 1013.1 0 17.6 22.9 33.7 88.2 80.7 277.3
02/09 12:50 19.6 49 8.27 8.7 9 13 1013.1 0 18.6 23.8 35.8 93.8 87.4 300.6
02/09 12:40 19.8 48 8.2 8.6 9 11 1013.1 0 18.5 23.6 35.5 92.9 86.3 296.9
02/09 12:30 19.5 50 8.39 8.8 9 13 1013.1 0 18.9 24.0 36.3 95.1 88.9 306.0
02/09 12:20 18.4 51 8.02 8.3 9 13 1013.1 0 18.1 23.7 35.4 92.8 85.6 294.4
02/09 12:10 18.7 52 8.32 8.6 9 11 1013.1 0 18.8 24.1 36.4 95.4 89.0 306.1
02/09 12:00 18.5 51 8.07 8.4 9 11 1013.1 0 18.2 23.8 35.5 93.2 86.1 296.2
02/09 11:50 18.5 50 7.91 8 9 11 1013.1 0 17.9 23.5 35.0 91.6 84.2 289.4
02/09 11:40 18.5 52 8.23 8.6 11 17 1013.1 0 18.6 24.0 36.1 94.7 88.1 303.0
02/09 11:30 18.8 49 7.89 8 9 13 1013.1 0 17.9 23.4 34.8 91.1 83.7 287.5
02/09 11:20 18.1 51 7.88 8 9 11 1013.1 0 17.9 23.6 35.0 91.7 84.3 289.6
02/09 11:10 17.3 56 8.25 8.4 11 13 1013.1 0 18.7 24.4 36.8 96.4 89.7 308.5
02/09 11:00 17 55 7.96 7.9 9 13 1013.1 0 18.1 24.0 35.8 93.8 86.4 297.0
02/09 10:50 16 59 8.04 8 9 11 1013.1 0 18.3 24.4 36.5 95.8 88.5 304.3
02/09 10:40 15.5 61 8.06 8 7 11 1013.1 0 18.4 24.6 36.9 96.6 89.4 307.1
02/09 10:30 16 58 7.9 7.8 9 11 1013.1 0 18.0 24.2 36.0 94.4 86.8 298.1
02/09 10:20 16 59 8.04 8.1 9 11 1013.1 0 18.3 24.4 36.5 95.8 88.5 304.3
02/09 10:10 15.6 62 8.25 8.3 9 11 1013.1 0 18.8 24.8 37.5 98.4 91.7 315.1
02/09 10:00 15.4 61 8.01 8.1 9 11 1013.1 0 18.3 24.5 36.7 96.2 88.8 305.2
02/09 09:50 15 61 7.82 7.7 9 13 1013.1 0 17.9 24.3 36.2 94.8 86.9 298.4
02/09 09:40 14.8 62 7.85 7.6 7 9 1013.1 0 17.9 24.4 36.4 95.3 87.5 300.4
02/09 09:30 14.5 63 7.84 7.6 9 13 1013.1 0 17.9 24.5 36.5 95.6 87.7 301.1
02/09 09:20 14.2 65 7.94 7.7 9 11 1013.1 0 18.2 24.7 37.0 97.0 89.3 306.7
02/09 09:10 13.7 66 7.82 7.6 9 11 1013.1 0 17.9 24.7 36.8 96.3 88.3 303.3
02/09 09:00 13.2 68 7.81 7.5 9 11 1013.1 0 17.9 24.8 36.9 96.8 88.8 304.7
02/09 08:50 13.1 70 7.99 7.8 9 11 1013.1 0 18.3 25.1 37.7 98.8 91.2 313.3
02/09 08:40 12.7 72 8.02 7.8 9 11 1013.1 0 18.4 25.3 38.0 99.7 92.1 316.3
02/09 08:30 12.3 74 8.04 7.8 7 9 1013.1 0 18.5 25.4 38.3 100.4 92.8 318.8
02/09 08:20 11.8 76 8 7.7 9 15 1013.1 0 18.4 25.5 38.4 100.6 92.9 319.0
02/09 08:10 11.6 76 7.9 7.5 9 11 1013.1 0 18.2 25.4 38.1 99.8 91.8 315.2
02/09 08:00 11.2 78 7.91 7.6 9 11 1013.1 0 18.2 25.5 38.3 100.4 92.4 317.2
02/09 07:50 10.8 79 7.81 7.4 9 11 1013.1 0 18.0 25.5 38.1 99.8 91.6 314.2
02/09 07:40 10.2 82 7.81 7.3 9 13 1013.1 0 18.1 25.6 38.4 100.6 92.3 316.6
02/09 07:30 9.9 84 7.85 7.4 11 13 1013.1 0 18.2 25.8 38.7 101.4 93.2 319.7
02/09 07:20 9.7 85 7.84 7.4 9 11 1013.1 0 18.2 25.8 38.7 101.6 93.3 320.1
02/09 07:10 9.4 88 7.96 7.5 7 9 1013.1 0 18.4 26.1 39.4 103.3 95.3 327.0
02/09 07:00 9.4 87 7.87 7.4 7 7 1013.1 0 18.2 26.0 39.0 102.3 94.1 322.7
02/09 06:50 9.4 87 7.87 7.3 7 9 1013.1 0 18.2 26.0 39.0 102.3 94.1 322.7
02/09 06:40 9.3 87 7.82 7.3 7 7 1013.1 0 18.1 25.9 38.8 101.9 93.5 320.7
02/09 06:30 9.1 88 7.81 7.3 6 7 1013.1 0 18.1 26.0 38.9 102.0 93.6 321.1
02/09 06:20 8.8 90 7.84 7.3 6 7 1013.1 0 18.2 26.1 39.2 102.7 94.4 323.8
02/09 06:10 9 88 7.76 7.2 6 6 1013.1 0 18.0 25.9 38.7 101.6 93.0 319.1
02/09 06:00 9.4 87 7.87 7.3 6 7 1013.1 0 18.2 26.0 39.0 102.3 94.1 322.7
02/09 05:50 9.6 85 7.79 7.3 6 7 1013.1 0 18.0 25.8 38.6 101.1 92.7 318.1
02/09 05:40 9.9 84 7.85 7.3 7 11 1013.1 0 18.2 25.8 38.7 101.4 93.2 319.7
02/09 05:30 9.9 84 7.85 7.3 11 11 1013.1 0 18.2 25.8 38.7 101.4 93.2 319.7
02/09 05:20 10 83 7.8 7.3 11 15 1013.1 0 18.1 25.7 38.4 100.7 92.4 316.9
02/09 05:10 9.7 84 7.75 7.1 9 11 1013.1 0 18.0 25.7 38.4 100.6 92.1 315.8
02/09 05:00 9.4 86 7.78 7.2 6 7 1013.1 0 18.0 25.8 38.6 101.3 92.8 318.4
02/09 04:50 9.5 86 7.83 7.3 6 6 1013.1 0 18.1 25.9 38.8 101.7 93.4 320.4
02/09 04:40 9.9 84 7.85 7.4 6 7 1013.1 0 18.2 25.8 38.7 101.4 93.2 319.7
02/09 04:30 10 83 7.8 7.3 6 9 1013.1 0 18.1 25.7 38.4 100.7 92.4 316.9
02/09 04:20 9.9 83 7.75 7.2 7 9 1013.1 0 17.9 25.6 38.3 100.3 91.8 315.0
02/09 04:10 9.8 83 7.7 7.1 7 9 1013.1 0 17.8 25.6 38.1 99.9 91.3 313.0
02/09 04:00 9.8 83 7.7 7 7 9 1013.1 0 17.8 25.6 38.1 99.9 91.3 313.0
02/09 03:50 9.9 82 7.66 7 7 9 1013.1 0 17.8 25.5 37.9 99.3 90.6 310.7
02/09 03:40 10.2 81 7.71 7.1 6 9 1013.1 0 17.9 25.5 38.0 99.5 90.9 311.9
02/09 03:30 10.4 79 7.62 6.9 9 13 1013.1 0 17.6 25.3 37.5 98.3 89.5 306.9
02/09 03:20 10.5 77 7.47 6.7 7 9 1013.1 0 17.3 25.0 36.8 96.5 87.4 299.5
02/09 03:10 10.4 80 7.71 7.1 7 9 1013.1 0 17.8 25.4 37.9 99.2 90.7 311.1
02/09 03:00 10.4 80 7.71 7.1 7 7 1013.1 0 17.8 25.4 37.9 99.2 90.7 311.1
02/09 02:50 10.3 81 7.76 7.2 7 7 1013.1 0 18.0 25.5 38.1 99.9 91.5 313.8
02/09 02:40 10.4 80 7.71 7.2 6 7 1013.1 0 17.8 25.4 37.9 99.2 90.7 311.1

Last Refresh: 02-Sep-2026 19:16:36

Bureau of Meteorology